Time;durP1;ratioP1;P1;durP2;ratioP2;P2;SDS_P1;SDS_P2;PMS_P1;PMS_P2;Temp;Humidity;BMP_temperature;BMP_pressure;BME280_temperature;BME280_humidity;BME280_pressure;Samples;Min_cycle;Max_cycle;Signal;HPM_P1;HPM_P2
2022/04/01 00:03:28;;;;;;;44.33;21.85;;;;;;;3.48;100.00;97996.91;12186461;19;20035;-79
2022/04/01 00:07:30;;;;;;;36.90;19.63;;;;;;;3.54;100.00;97991.31;12210014;19;20007;-79
2022/04/01 00:11:32;;;;;;;42.92;21.77;;;;;;;3.48;100.00;97994.19;12205288;19;20089;-79
2022/04/01 00:15:36;;;;;;;34.60;19.45;;;;;;;3.41;100.00;97992.47;12173858;19;20488;-79
2022/04/01 00:19:37;;;;;;;33.22;19.40;;;;;;;3.49;100.00;97991.25;12190116;19;20006;-79
2022/04/01 00:23:39;;;;;;;36.15;18.67;;;;;;;3.50;100.00;97986.59;12209979;19;20019;-79
2022/04/01 00:27:41;;;;;;;37.50;18.90;;;;;;;3.50;100.00;97990.16;12190028;19;20006;-79
2022/04/01 00:31:58;;;;;;;32.97;18.80;;;;;;;3.48;100.00;97989.59;12207476;19;20057;-77
2022/04/01 00:36:00;;;;;;;34.97;19.70;;;;;;;3.40;100.00;97990.00;12211179;19;20009;-78
2022/04/01 00:40:03;;;;;;;37.83;19.83;;;;;;;3.41;100.00;97988.94;12184038;19;20010;-78
2022/04/01 00:44:13;;;;;;;36.07;18.90;;;;;;;3.42;100.00;97987.84;12205301;19;20031;-79
2022/04/01 00:48:17;;;;;;;34.03;19.80;;;;;;;3.39;100.00;97985.63;12204926;19;20007;-79
2022/04/01 00:52:22;;;;;;;34.95;19.02;;;;;;;3.42;100.00;97988.69;12188604;19;20082;-79
2022/04/01 00:56:30;;;;;;;34.50;19.25;;;;;;;3.46;100.00;97997.19;12203512;19;20003;-79
2022/04/01 01:00:31;;;;;;;33.50;19.45;;;;;;;3.41;100.00;97992.47;12188825;19;20491;-78
2022/04/01 01:04:33;;;;;;;35.53;19.83;;;;;;;3.40;100.00;97984.56;12202292;19;20074;-79
2022/04/01 01:08:37;;;;;;;34.70;19.05;;;;;;;3.40;100.00;97984.56;12205329;19;20003;-78
2022/04/01 01:12:38;;;;;;;32.90;19.52;;;;;;;3.45;100.00;97991.97;12186077;19;20023;-78
2022/04/01 01:16:44;;;;;;;33.05;18.77;;;;;;;3.48;100.00;97991.47;12208435;19;20042;-78
2022/04/01 01:20:46;;;;;;;36.40;19.42;;;;;;;3.50;100.00;97990.16;12206904;19;20360;-79
2022/04/01 01:24:48;;;;;;;35.33;20.02;;;;;;;3.50;100.00;97998.31;12181434;19;20010;-78
2022/04/01 01:28:51;;;;;;;35.17;18.88;;;;;;;3.44;100.00;97996.59;12200671;19;20033;-78
2022/04/01 01:32:53;;;;;;;36.75;19.50;;;;;;;3.34;100.00;97986.38;12201496;19;20027;-78
2022/04/01 01:36:56;;;;;;;27.57;14.00;;;;;;;3.29;100.00;97989.00;12168839;19;20017;-77
2022/04/01 01:40:58;;;;;;;33.88;18.90;;;;;;;3.31;100.00;97977.88;12202345;19;20010;-77
2022/04/01 01:45:00;;;;;;;33.58;17.85;;;;;;;3.32;100.00;97984.97;12200482;19;20107;-78
2022/04/01 01:49:02;;;;;;;34.85;18.10;;;;;;;3.29;100.00;97983.56;12181699;19;20011;-78
2022/04/01 01:57:27;;;;;;;30.42;18.05;;;;;;;3.33;100.00;97986.59;12190872;19;20373;-79
2022/04/01 02:01:30;;;;;;;28.00;16.60;;;;;;;3.29;100.00;97983.56;12218408;19;20006;-78
2022/04/01 02:05:34;;;;;;;34.22;18.15;;;;;;;3.30;100.00;97984.38;12201560;19;20014;-78
2022/04/01 02:09:40;;;;;;;29.90;16.85;;;;;;;3.33;100.00;97983.88;12194559;19;20004;-78
2022/04/01 02:13:41;;;;;;;32.50;17.40;;;;;;;3.30;100.00;97981.66;12207707;19;20460;-78
2022/04/01 02:17:44;;;;;;;28.60;16.05;;;;;;;3.22;100.00;97974.75;12210533;19;20024;-78
2022/04/01 02:21:46;;;;;;;31.10;17.30;;;;;;;3.20;100.00;97979.59;12189395;19;20014;-77
2022/04/01 02:25:48;;;;;;;27.17;16.60;;;;;;;3.20;100.00;97974.97;12213159;19;20010;-78
2022/04/01 02:29:50;;;;;;;31.83;16.88;;;;;;;3.19;100.00;97978.78;12211860;19;20014;-78
2022/04/01 02:33:52;;;;;;;29.57;16.30;;;;;;;3.15;100.00;97976.78;12182749;19;20014;-77
2022/04/01 02:37:54;;;;;;;26.73;16.50;;;;;;;3.15;100.00;97987.69;12209011;19;20007;-78
2022/04/01 02:41:56;;;;;;;27.07;15.87;;;;;;;3.10;100.00;97983.00;12215515;19;20010;-77
2022/04/01 02:45:57;;;;;;;28.92;15.98;;;;;;;3.13;100.00;97976.22;12190217;19;20271;-78
2022/04/01 02:50:00;;;;;;;28.27;16.70;;;;;;;3.17;100.00;97989.09;12213199;19;20027;-79
2022/04/01 02:54:04;;;;;;;28.67;16.60;;;;;;;3.15;100.00;97983.09;12210721;19;20006;-78
2022/04/01 02:58:06;;;;;;;28.33;16.58;;;;;;;3.26;100.00;97983.25;12189032;19;20352;-79
2022/04/01 03:02:09;;;;;;;26.98;14.95;;;;;;;3.28;100.00;97981.09;12209070;19;20010;-77
2022/04/01 03:06:11;;;;;;;;;;;;;;;3.33;100.00;97986.59;12208305;19;20007;-78
2022/04/01 03:10:13;;;;;;;28.30;15.30;;;;;;;3.33;100.00;97984.72;12188324;19;20329;-78
2022/04/01 03:14:16;;;;;;;29.05;15.52;;;;;;;3.27;100.00;97995.75;12204025;19;20020;-78
2022/04/01 03:18:51;;;;;;;29.08;16.45;;;;;;;3.19;100.00;97995.13;12188258;19;20113;-78
2022/04/01 03:22:53;;;;;;;26.75;15.15;;;;;;;3.06;100.00;97986.44;12216277;19;20006;-78
2022/04/01 03:27:01;;;;;;;28.90;16.00;;;;;;;3.04;100.00;97997.56;12211517;19;20353;-77
2022/04/01 03:31:05;;;;;;;28.00;16.25;;;;;;;3.00;100.00;97990.97;12187240;19;20097;-78
2022/04/01 03:35:14;;;;;;;25.50;15.48;;;;;;;2.91;100.00;98006.84;12210264;19;20036;-78
2022/04/01 03:39:18;;;;;;;28.65;16.00;;;;;;;2.98;100.00;97998.56;12207469;19;20007;-78
2022/04/01 03:43:25;;;;;;;25.77;14.95;;;;;;;2.92;100.00;97988.66;12206528;19;20444;-77
2022/04/01 03:48:08;;;;;;;28.20;16.20;;;;;;;2.93;100.00;97988.41;12210926;19;20013;-77
2022/04/01 03:52:11;;;;;;;22.88;14.80;;;;;;;2.99;100.00;98000.19;12191465;19;20010;-78
2022/04/01 03:56:21;;;;;;;24.38;15.10;;;;;;;2.97;100.00;97997.75;12209056;19;20539;-77
2022/04/01 04:00:47;;;;;;;26.65;14.30;;;;;;;3.01;100.00;97998.06;12185469;19;20017;-78
2022/04/01 04:04:51;;;;;;;25.45;14.60;;;;;;;2.87;100.00;97994.00;12206030;19;20011;-78
2022/04/01 04:08:57;;;;;;;26.95;15.13;;;;;;;2.94;100.00;98005.53;12209178;19;20011;-77
2022/04/01 04:12:59;;;;;;;28.45;16.45;;;;;;;2.90;100.00;98009.84;12182362;19;20017;-78
2022/04/01 04:17:10;;;;;;;27.15;14.65;;;;;;;2.88;100.00;98014.69;12204570;19;20380;-78
2022/04/01 04:21:29;;;;;;;25.75;15.45;;;;;;;2.96;100.00;98000.69;12204166;19;20498;-78
2022/04/01 04:25:37;;;;;;;26.63;15.82;;;;;;;2.84;100.00;98013.53;12183249;19;20019;-77
2022/04/01 04:29:50;;;;;;;24.85;15.27;;;;;;;2.89;100.00;98017.19;12203968;19;20026;-77
2022/04/01 04:34:10;;;;;;;25.27;14.45;;;;;;;2.98;100.00;98020.34;12181601;19;20536;-78
2022/04/01 04:38:14;;;;;;;25.60;14.90;;;;;;;2.98;100.00;98020.34;12201230;19;20006;-76
2022/04/01 04:42:21;;;;;;;23.63;14.70;;;;;;;2.93;100.00;98022.94;12186698;19;20472;-79
2022/04/01 04:46:27;;;;;;;25.88;14.30;;;;;;;2.92;100.00;98030.28;12206932;19;20003;-78
2022/04/01 04:50:32;;;;;;;22.25;12.98;;;;;;;2.90;100.00;98032.41;12201629;19;20007;-78
2022/04/01 04:54:38;;;;;;;25.27;15.45;;;;;;;2.82;100.00;98030.09;12182148;19;20023;-77
2022/04/01 04:58:55;;;;;;;23.23;14.38;;;;;;;2.74;100.00;98036.75;12208450;19;20050;-78
2022/04/01 05:03:19;;;;;;;23.90;13.80;;;;;;;2.75;100.00;98045.75;12199300;19;20454;-79
2022/04/01 05:07:33;;;;;;;23.45;14.13;;;;;;;2.82;100.00;98051.03;12185609;19;20019;-78
2022/04/01 05:12:06;;;;;;;23.58;13.88;;;;;;;2.93;100.00;98055.59;12200843;19;20073;-78
2022/04/01 05:17:00;;;;;;;21.67;13.23;;;;;;;3.01;100.00;98073.44;12179561;19;20042;-78
2022/04/01 05:21:04;;;;;;;21.15;12.82;;;;;;;3.07;100.00;98067.03;12207338;19;20014;-79
2022/04/01 05:25:08;;;;;;;23.38;14.40;;;;;;;3.01;100.00;98070.72;12189250;19;20007;-78
2022/04/01 05:29:14;;;;;;;22.50;12.68;;;;;;;3.05;100.00;98077.31;12222007;19;20010;-77
2022/04/01 05:33:25;;;;;;;19.45;12.55;;;;;;;3.06;100.00;98084.41;12199556;19;20372;-79
2022/04/01 05:37:34;;;;;;;19.73;12.43;;;;;;;2.95;100.00;98091.56;12203085;19;20011;-79
2022/04/01 05:41:40;;;;;;;20.10;12.65;;;;;;;2.98;100.00;98093.78;12178031;19;20003;-78
2022/04/01 05:45:44;;;;;;;18.15;10.77;;;;;;;2.96;100.00;98104.91;12190588;19;20012;-80
2022/04/01 05:49:48;;;;;;;19.85;11.18;;;;;;;2.92;100.00;98113.81;12208739;19;20038;-79
2022/04/01 05:53:55;;;;;;;19.48;11.15;;;;;;;2.93;100.00;98107.28;12214066;19;20002;-79
2022/04/01 05:57:56;;;;;;;21.30;11.88;;;;;;;2.94;100.00;98114.38;12192899;19;20014;-79
2022/04/01 06:02:36;;;;;;;18.23;10.83;;;;;;;2.95;100.00;98121.50;12206769;19;20002;-78
2022/04/01 06:06:43;;;;;;;20.25;12.45;;;;;;;3.00;100.00;98124.28;12194255;19;20066;-79
2022/04/01 06:11:07;;;;;;;18.80;12.50;;;;;;;3.05;100.00;98121.69;12219157;19;20523;-80
2022/04/01 06:15:56;;;;;;;20.40;11.75;;;;;;;2.94;99.92;98123.38;12192744;19;21340;-80
2022/04/01 06:20:16;;;;;;;22.45;13.65;;;;;;;2.96;100.00;98131.28;12207554;19;20015;-80
2022/04/01 06:24:41;;;;;;;23.63;12.75;;;;;;;2.90;100.00;98130.34;12186716;19;19998;-79
2022/04/01 06:29:02;;;;;;;21.95;13.35;;;;;;;2.93;100.00;98140.75;12219946;19;20011;-79
2022/04/01 06:33:43;;;;;;;20.80;11.75;;;;;;;3.09;99.86;98141.88;12216061;19;20098;-79
2022/04/01 06:38:41;;;;;;;20.13;12.05;;;;;;;3.14;99.73;98150.16;12010914;19;2004951;-79
2022/04/01 06:42:45;;;;;;;17.80;11.02;;;;;;;3.16;99.34;98158.09;12189125;19;20014;-79
2022/04/01 06:47:05;;;;;;;19.63;11.98;;;;;;;3.10;98.53;98159.06;12213369;19;20023;-78
2022/04/01 06:51:08;;;;;;;;;;;;;;;3.06;98.65;98164.13;12203346;19;20022;-81
2022/04/01 06:55:29;;;;;;;21.27;11.25;;;;;;;2.95;98.09;98167.75;12192738;19;19998;-80
2022/04/01 06:59:36;;;;;;;15.13;10.02;;;;;;;2.90;98.60;98156.75;12218651;19;20034;-82
2022/04/01 07:03:41;;;;;;;18.48;11.65;;;;;;;2.85;98.13;98176.50;12181962;19;20078;-78
2022/04/01 07:07:44;;;;;;;17.80;10.68;;;;;;;2.71;97.92;98173.22;12212208;19;20026;-80
2022/04/01 07:11:46;;;;;;;19.70;11.75;;;;;;;2.74;98.60;98177.38;12208230;19;20144;-80
2022/04/01 07:15:50;;;;;;;17.30;10.32;;;;;;;2.75;98.19;98179.00;12185364;19;20010;-80
2022/04/01 07:19:52;;;;;;;17.80;11.52;;;;;;;2.71;97.18;98186.84;12208587;19;20374;-80
2022/04/01 07:23:54;;;;;;;20.80;11.32;;;;;;;2.71;96.90;98184.09;12210282;19;20026;-78
2022/04/01 07:27:56;;;;;;;20.67;10.68;;;;;;;2.83;96.17;98181.38;12194395;19;20084;-79
2022/04/01 07:36:21;;;;;;;20.67;11.55;;;;;;;2.80;96.22;98192.72;12189851;19;20020;-79
2022/04/01 07:40:30;;;;;;;36.65;18.80;;;;;;;2.81;96.18;98201.72;12205668;19;20072;-79
2022/04/01 07:44:34;;;;;;;23.13;13.07;;;;;;;2.80;95.44;98200.91;12202958;19;20002;-79
2022/04/01 07:48:35;;;;;;;23.05;14.77;;;;;;;2.69;95.20;98207.16;12190229;19;20023;-80
2022/04/01 07:52:40;;;;;;;19.90;11.65;;;;;;;2.82;95.38;98217.78;12199530;19;20003;-78
2022/04/01 07:56:43;;;;;;;24.02;15.15;;;;;;;2.79;94.21;98222.88;12201610;19;20018;-79
2022/04/01 08:00:46;;;;;;;20.37;11.67;;;;;;;2.74;93.70;98223.63;12186222;19;20045;-78
2022/04/01 08:04:48;;;;;;;18.93;12.03;;;;;;;2.60;94.89;98222.19;12201075;19;21333;-80
2022/04/01 08:08:49;;;;;;;17.15;11.35;;;;;;;2.56;94.20;98221.84;12200561;19;20348;-79
2022/04/01 08:12:54;;;;;;;22.63;12.77;;;;;;;2.58;94.33;98230.56;12181868;19;20011;-79
2022/04/01 08:16:56;;;;;;;17.88;11.93;;;;;;;2.52;93.87;98234.25;12198131;19;20482;-80
2022/04/01 08:20:58;;;;;;;20.50;11.48;;;;;;;2.56;93.84;98235.44;12213174;19;20014;-79
2022/04/01 08:25:00;;;;;;;21.27;10.48;;;;;;;2.51;94.87;98244.28;12190410;19;20010;-82
2022/04/01 08:29:02;;;;;;;16.00;9.87;;;;;;;2.42;94.68;98247.63;12206066;19;20015;-79
2022/04/01 08:33:04;;;;;;;18.33;10.40;;;;;;;2.45;94.07;98255.28;12209802;19;20768;-80
2022/04/01 08:37:07;;;;;;;18.40;10.93;;;;;;;2.40;94.36;98257.88;12185384;19;20010;-79
2022/04/01 08:41:09;;;;;;;;;;;;;;;2.36;93.85;98259.44;12194958;19;20014;-81
2022/04/01 08:45:11;;;;;;;14.20;8.98;;;;;;;2.31;93.57;98262.00;12202594;19;19927;-79
2022/04/01 08:49:13;;;;;;;16.20;9.80;;;;;;;2.28;93.56;98272.28;12184132;19;20743;-82
2022/04/01 08:53:15;;;;;;;15.07;9.27;;;;;;;2.38;93.22;98270.88;12198527;19;20010;-80
2022/04/01 08:57:18;;;;;;;16.08;9.07;;;;;;;2.43;93.16;98273.72;12203345;19;20022;-80
2022/04/01 09:01:39;;;;;;;13.82;8.55;;;;;;;2.55;92.29;98282.72;12196033;19;20071;-79
2022/04/01 09:05:52;;;;;;;12.48;8.48;;;;;;;2.49;92.17;98286.38;12200160;19;20006;-79
2022/04/01 09:10:06;;;;;;;14.02;8.82;;;;;;;2.54;92.46;98286.50;12170373;19;20646;-79
2022/04/01 09:14:22;;;;;;;14.25;8.93;;;;;;;2.59;91.60;98294.78;12202260;19;20030;-81
2022/04/01 09:18:41;;;;;;;17.65;9.52;;;;;;;2.74;91.77;98306.03;12180658;19;20015;-83
2022/04/01 09:22:44;;;;;;;16.33;9.20;;;;;;;2.77;91.49;98307.47;12223263;19;20010;-81
2022/04/01 09:26:54;;;;;;;15.23;9.43;;;;;;;2.81;90.40;98313.25;12221563;19;20011;-79
2022/04/01 09:31:02;;;;;;;12.98;7.97;;;;;;;2.88;90.67;98324.81;12189171;19;20011;-80
2022/04/01 09:35:26;;;;;;;15.45;9.20;;;;;;;2.88;90.58;98319.38;12198477;19;20011;-80
2022/04/01 09:39:28;;;;;;;14.90;8.40;;;;;;;2.76;90.59;98324.81;12181050;19;20031;-80
2022/04/01 09:43:37;;;;;;;13.40;8.27;;;;;;;2.80;91.51;98336.09;12199221;19;20024;-79
2022/04/01 09:47:39;;;;;;;17.40;8.43;;;;;;;2.68;91.19;98333.34;12214839;19;20119;-80
2022/04/01 09:52:06;;;;;;;14.60;8.10;;;;;;;2.85;91.60;98330.75;12183018;19;20099;-80
2022/04/01 09:56:45;;;;;;;13.07;7.28;;;;;;;2.73;91.75;98333.44;12191736;19;20021;-80
2022/04/01 10:01:27;;;;;;;15.40;8.95;;;;;;;2.69;92.18;98332.28;12196457;19;20078;-81
2022/04/01 10:05:43;;;;;;;12.80;7.45;;;;;;;2.83;92.49;98331.00;12198528;19;20402;-80
2022/04/01 10:10:07;;;;;;;14.93;7.93;;;;;;;2.96;93.18;98328.03;12169241;19;20011;-81
2022/04/01 10:14:18;;;;;;;13.55;8.10;;;;;;;2.91;94.43;98333.34;12219036;19;20643;-81
2022/04/01 10:18:22;;;;;;;14.05;8.13;;;;;;;2.85;94.31;98342.44;12192034;19;20023;-80
2022/04/01 10:22:25;;;;;;;14.18;9.27;;;;;;;2.88;94.33;98341.16;12217119;19;20010;-79
2022/04/01 10:26:31;;;;;;;;;;;;;;;2.77;95.33;98347.41;12208980;19;20010;-80
2022/04/01 10:30:34;;;;;;;20.65;10.27;;;;;;;2.77;96.03;98350.97;12191379;19;19978;-80
2022/04/01 10:34:45;;;;;;;14.55;8.15;;;;;;;2.84;96.34;98356.31;12205847;19;20007;-81
2022/04/01 10:39:00;;;;;;;18.45;11.07;;;;;;;2.85;97.16;98353.31;12207501;19;20018;-80
2022/04/01 10:43:38;;;;;;;21.70;12.18;;;;;;;2.89;97.37;98356.44;12187579;19;20067;-81
2022/04/01 10:52:14;;;;;;;15.85;9.23;;;;;;;2.95;96.14;98372.63;12199331;19;20018;-80
2022/04/01 10:56:25;;;;;;;15.73;9.10;;;;;;;2.82;97.09;98372.03;12210260;19;20010;-80
2022/04/01 11:00:33;;;;;;;14.05;9.02;;;;;;;2.72;98.16;98367.16;12197732;19;20002;-80
2022/04/01 11:04:44;;;;;;;18.70;9.90;;;;;;;2.79;98.64;98376.03;12212953;19;20013;-80
2022/04/01 11:08:53;;;;;;;12.82;7.75;;;;;;;2.84;97.99;98391.66;12212198;19;20464;-80
2022/04/01 11:12:55;;;;;;;13.13;7.95;;;;;;;2.70;97.17;98388.31;12186153;19;20464;-81
2022/04/01 11:17:06;;;;;;;13.75;8.73;;;;;;;2.42;98.53;98395.25;12207748;19;20405;-80
2022/04/01 11:21:29;;;;;;;16.70;8.98;;;;;;;2.56;99.92;98386.88;12214401;19;20464;-81
2022/04/01 11:26:08;;;;;;;13.07;7.45;;;;;;;2.90;99.21;98398.88;12105961;19;2004393;-80
2022/04/01 11:30:13;;;;;;;12.20;7.13;;;;;;;2.89;97.19;98408.94;12218192;19;20006;-79
2022/04/01 11:34:15;;;;;;;14.65;8.10;;;;;;;2.88;97.29;98411.88;12188955;19;20034;-81
2022/04/01 11:38:19;;;;;;;18.87;9.97;;;;;;;2.58;97.98;98423.66;12210671;19;20346;-81
2022/04/01 11:42:22;;;;;;;19.25;9.73;;;;;;;2.71;97.86;98409.88;12187668;19;20877;-81
2022/04/01 11:46:33;;;;;;;14.70;8.82;;;;;;;2.56;97.65;98422.22;12207615;19;20090;-81
2022/04/01 11:50:35;;;;;;;;;;;;;;;2.46;97.64;98422.78;12212730;19;20014;-81
2022/04/01 11:54:37;;;;;;;18.42;8.77;;;;;;;2.45;97.72;98412.97;12184996;19;19928;-80
2022/04/01 11:58:51;;;;;;;20.02;10.27;;;;;;;2.20;98.25;98422.13;12213533;19;20010;-79
2022/04/01 12:02:54;;;;;;;20.63;12.10;;;;;;;2.21;99.97;98431.09;12217398;19;21576;-79
2022/04/01 12:11:24;;;;;;;22.52;10.68;;;;;;;2.42;97.13;98443.34;12215412;19;19918;-80
2022/04/01 12:15:38;;;;;;;25.50;13.27;;;;;;;2.61;98.25;98444.94;12191715;19;20027;-79
2022/04/01 12:19:43;;;;;;;21.88;12.10;;;;;;;2.45;97.33;98445.59;12215119;19;20019;-79
2022/04/01 12:23:50;;;;;;;21.35;12.18;;;;;;;2.47;97.15;98448.94;12215325;19;20018;-79
2022/04/01 12:27:56;;;;;;;22.98;12.73;;;;;;;2.56;98.28;98438.53;12194559;19;20081;-79
2022/04/01 12:32:05;;;;;;;13.48;8.10;;;;;;;2.52;97.33;98443.63;12212498;19;20019;-79
2022/04/01 12:36:08;;;;;;;12.27;6.97;;;;;;;2.54;96.77;98446.94;12213369;19;20719;-81
2022/04/01 12:40:10;;;;;;;10.73;6.88;;;;;;;2.35;97.53;98445.31;12190248;19;20014;-80
2022/04/01 12:44:13;;;;;;;16.27;7.72;;;;;;;2.14;99.16;98449.34;12211143;19;20358;-79
2022/04/01 12:48:20;;;;;;;;;;;;;;;1.88;100.00;98455.97;12210162;19;20037;-80
2022/04/01 12:52:28;;;;;;;14.93;8.32;;;;;;;1.64;100.00;98460.41;12213118;19;19918;-80
2022/04/01 12:56:34;;;;;;;13.68;7.25;;;;;;;1.80;100.00;98448.94;12154912;19;20003;-79
2022/04/01 13:00:36;;;;;;;14.45;7.88;;;;;;;1.70;100.00;98457.63;12184394;19;20014;-79
2022/04/01 13:05:11;;;;;;;18.88;10.10;;;;;;;1.85;100.00;98467.28;12206675;19;20581;-80
2022/04/01 13:09:14;;;;;;;15.10;8.50;;;;;;;1.92;100.00;98468.03;12181793;19;20006;-79
2022/04/01 13:13:22;;;;;;;17.05;10.50;;;;;;;1.88;100.00;98467.66;12203414;19;20006;-80
2022/04/01 13:17:25;;;;;;;16.40;8.90;;;;;;;1.71;100.00;98466.59;12202342;19;20011;-82
2022/04/01 13:21:26;;;;;;;14.20;8.70;;;;;;;1.59;100.00;98463.78;12182884;19;20018;-79
2022/04/01 13:25:33;;;;;;;17.23;9.30;;;;;;;1.55;100.00;98470.75;12205572;19;20006;-79
2022/04/01 13:29:35;;;;;;;;;;;;;;;1.76;100.00;98464.03;12204225;19;20014;-79
2022/04/01 13:33:37;;;;;;;14.32;8.07;;;;;;;1.57;100.00;98469.44;12186988;19;19937;-80
2022/04/01 13:37:38;;;;;;;11.75;7.75;;;;;;;1.75;100.00;98465.91;12205199;19;20508;-79
2022/04/01 13:41:40;;;;;;;15.55;8.63;;;;;;;2.02;100.00;98463.72;12197992;19;20006;-79
2022/04/01 13:45:42;;;;;;;14.63;8.70;;;;;;;1.70;100.00;98476.63;12196731;19;20006;-81
2022/04/01 13:49:45;;;;;;;;;;;;;;;1.49;100.00;98479.78;12220966;19;20086;-79
2022/04/01 13:53:47;;;;;;;14.57;8.20;;;;;;;1.35;100.00;98479.06;12217400;19;19915;-78
2022/04/01 13:57:49;;;;;;;13.10;8.82;;;;;;;1.10;100.00;98484.47;12198532;19;20481;-79
2022/04/01 14:01:51;;;;;;;17.88;9.40;;;;;;;0.98;100.00;98497.09;12213490;19;20354;-79
2022/04/01 14:05:59;;;;;;;17.15;8.82;;;;;;;1.02;100.00;98495.63;12222283;19;20086;-78
2022/04/01 14:10:01;;;;;;;11.27;6.33;;;;;;;1.00;100.00;98501.25;12198998;19;20472;-78
2022/04/01 14:14:06;;;;;;;15.82;9.02;;;;;;;1.01;100.00;98504.78;12173553;19;20007;-79
2022/04/01 14:18:11;;;;;;;15.77;8.73;;;;;;;1.03;100.00;98510.84;12218880;19;20007;-77
2022/04/01 14:22:13;;;;;;;16.38;9.27;;;;;;;1.06;100.00;98516.66;12200069;19;20028;-78
2022/04/01 14:26:15;;;;;;;16.58;9.05;;;;;;;0.77;100.00;98522.69;12215842;19;20074;-78
2022/04/01 14:30:21;;;;;;;20.27;10.38;;;;;;;0.94;100.00;98514.88;12216204;19;20015;-79
2022/04/01 14:34:36;;;;;;;16.77;8.90;;;;;;;1.01;100.00;98511.09;12186228;19;20014;-78
2022/04/01 14:38:40;;;;;;;16.20;9.25;;;;;;;0.87;100.00;98517.63;12210026;19;20480;-79
2022/04/01 14:42:49;;;;;;;14.43;8.57;;;;;;;0.92;100.00;98520.50;12189501;19;20014;-78
2022/04/01 14:46:53;;;;;;;34.47;17.35;;;;;;;0.76;100.00;98524.59;12214472;19;20022;-78
2022/04/01 14:50:55;;;;;;;28.35;15.65;;;;;;;0.71;100.00;98527.09;12210851;19;20013;-79
2022/04/01 14:54:59;;;;;;;24.23;13.55;;;;;;;0.68;100.00;98531.09;12186992;19;20033;-80
2022/04/01 14:59:03;;;;;;;21.70;13.90;;;;;;;0.83;100.00;98533.53;12209692;19;20085;-80
2022/04/01 15:03:05;;;;;;;19.13;9.97;;;;;;;0.87;100.00;98542.06;12205434;19;19999;-81
2022/04/01 15:07:07;;;;;;;13.47;8.67;;;;;;;0.89;100.00;98540.78;12153278;19;20015;-79
2022/04/01 15:11:09;;;;;;;23.30;12.45;;;;;;;0.88;100.00;98554.56;12195828;19;20923;-79
2022/04/01 15:15:11;;;;;;;18.95;11.27;;;;;;;0.96;100.00;98548.03;12166779;19;20014;-77
2022/04/01 15:19:13;;;;;;;15.37;9.13;;;;;;;0.94;100.00;98563.69;12155367;19;20618;-77
2022/04/01 15:23:14;;;;;;;19.38;12.07;;;;;;;0.90;100.00;98566.84;12182857;19;20010;-77
2022/04/01 15:27:17;;;;;;;21.70;11.60;;;;;;;0.88;100.00;98566.22;12177547;19;20038;-76
2022/04/01 15:31:20;;;;;;;19.10;10.85;;;;;;;0.83;100.00;98567.91;12153616;19;20077;-78
2022/04/01 15:35:22;;;;;;;20.88;12.48;;;;;;;0.88;100.00;98563.50;12186815;19;20037;-77
2022/04/01 15:39:27;;;;;;;22.65;11.63;;;;;;;0.88;100.00;98571.66;12210294;19;20034;-78
2022/04/01 15:43:30;;;;;;;20.45;12.68;;;;;;;0.79;100.00;98572.13;12205141;19;20021;-76
2022/04/01 15:47:41;;;;;;;20.00;12.40;;;;;;;0.75;100.00;98577.16;12236936;19;20010;-78
2022/04/01 15:51:43;;;;;;;19.40;12.18;;;;;;;0.71;100.00;98583.22;12207913;19;20013;-78
2022/04/01 15:55:45;;;;;;;22.48;12.77;;;;;;;0.50;100.00;98578.94;12184520;19;20006;-81
2022/04/01 15:59:47;;;;;;;22.23;12.68;;;;;;;0.46;100.00;98581.25;12198338;19;20757;-81
2022/04/01 16:03:54;;;;;;;22.17;13.60;;;;;;;0.45;100.00;98583.13;12172022;19;20025;-80
2022/04/01 16:07:58;;;;;;;21.67;13.02;;;;;;;0.43;100.00;98590.63;12198551;19;20053;-77
2022/04/01 16:12:07;;;;;;;19.20;11.35;;;;;;;0.38;100.00;98601.28;12199485;19;20014;-79
2022/04/01 16:16:09;;;;;;;18.55;11.55;;;;;;;0.39;100.00;98604.84;12171874;19;20115;-79
2022/04/01 16:20:11;;;;;;;19.92;12.30;;;;;;;0.36;100.00;98611.53;12203235;19;20006;-78
2022/04/01 16:24:13;;;;;;;21.10;12.27;;;;;;;0.33;100.00;98611.13;12198022;19;20007;-78
2022/04/01 16:28:18;;;;;;;23.48;14.23;;;;;;;0.36;100.00;98616.94;12186747;19;20010;-79
2022/04/01 16:32:32;;;;;;;26.00;15.05;;;;;;;0.45;100.00;98621.06;12209314;19;20765;-78
2022/04/01 16:36:36;;;;;;;21.52;13.65;;;;;;;0.41;100.00;98624.41;12202161;19;20006;-78
2022/04/01 16:40:41;;;;;;;24.05;13.80;;;;;;;0.31;100.00;98630.28;12186404;19;20006;-78
2022/04/01 16:44:46;;;;;;;25.75;14.38;;;;;;;0.30;100.00;98631.34;12209204;19;20014;-81
2022/04/01 16:48:48;;;;;;;28.33;15.30;;;;;;;0.38;100.00;98635.69;12183066;19;20023;-81
2022/04/01 16:52:50;;;;;;;29.42;15.30;;;;;;;0.34;100.00;98646.13;12204428;19;20027;-82
2022/04/01 16:56:53;;;;;;;25.08;14.18;;;;;;;0.37;100.00;98653.81;12205646;19;20034;-83
2022/04/01 17:00:55;;;;;;;22.08;13.68;;;;;;;0.33;100.00;98657.19;12176097;19;20015;-82
2022/04/01 17:04:57;;;;;;;22.65;13.82;;;;;;;0.27;100.00;98667.00;12193649;19;20507;-81
2022/04/01 17:13:30;;;;;;;28.05;15.80;;;;;;;0.30;100.00;98674.69;12175340;19;20014;-80
2022/04/01 17:17:32;;;;;;;31.20;17.98;;;;;;;0.32;100.00;98671.75;12198379;19;20092;-82
2022/04/01 17:25:55;;;;;;;25.27;14.90;;;;;;;0.20;100.00;98669.69;12200675;19;20011;-79
2022/04/01 17:29:58;;;;;;;23.15;14.80;;;;;;;0.25;100.00;98679.09;12201581;19;20411;-79
2022/04/01 17:34:06;;;;;;;27.63;16.02;;;;;;;0.23;100.00;98682.00;12184692;19;20020;-79
2022/04/01 17:38:07;;;;;;;27.20;15.90;;;;;;;0.24;100.00;98689.09;12199674;19;20571;-78
2022/04/01 17:42:13;;;;;;;17.80;10.50;;;;;;;0.15;100.00;98690.31;12194225;19;20028;-79
2022/04/01 17:46:16;;;;;;;19.85;12.48;;;;;;;0.01;100.00;98705.78;12177248;19;20255;-80
2022/04/01 17:50:20;;;;;;;26.17;15.02;;;;;;;0.04;100.00;98709.94;12226846;19;20237;-80
2022/04/01 17:54:22;;;;;;;26.13;14.98;;;;;;;0.02;100.00;98717.44;12219671;19;20015;-80
2022/04/01 17:58:24;;;;;;;27.40;15.32;;;;;;;-0.02;100.00;98722.44;12196565;19;20010;-78
2022/04/01 18:02:29;;;;;;;28.80;14.73;;;;;;;-0.04;100.00;98722.63;12188748;19;20501;-78
2022/04/01 18:06:34;;;;;;;23.30;13.97;;;;;;;-0.02;100.00;98736.81;12195422;19;20882;-76
2022/04/01 18:10:36;;;;;;;22.25;14.15;;;;;;;-0.05;100.00;98733.69;12171497;19;20465;-76
2022/04/01 18:14:38;;;;;;;25.10;15.50;;;;;;;-0.18;100.00;98739.91;12184778;19;20010;-76
2022/04/01 18:18:45;;;;;;;28.17;16.25;;;;;;;-0.18;100.00;98742.63;12197827;19;20010;-76
2022/04/01 18:22:47;;;;;;;27.42;17.17;;;;;;;-0.21;100.00;98745.75;12178862;19;20018;-77
2022/04/01 18:26:53;;;;;;;33.30;19.58;;;;;;;-0.15;100.00;98753.06;12196240;19;20006;-76
2022/04/01 18:31:03;;;;;;;22.67;13.95;;;;;;;-0.10;100.00;98755.13;12186933;19;20024;-76
2022/04/01 18:35:06;;;;;;;24.42;14.15;;;;;;;-0.09;100.00;98762.22;12213220;19;20014;-77
2022/04/01 18:39:10;;;;;;;27.75;16.65;;;;;;;-0.13;100.00;98755.56;12215803;19;20484;-78
2022/04/01 18:43:34;;;;;;;27.52;16.83;;;;;;;-0.11;100.00;98761.59;12187251;19;20007;-78
2022/04/01 18:47:36;;;;;;;29.90;15.75;;;;;;;-0.15;100.00;98761.19;12210936;19;20081;-78
2022/04/01 18:51:39;;;;;;;41.20;22.00;;;;;;;-0.19;100.00;98773.44;12207338;19;20006;-78
2022/04/01 18:55:41;;;;;;;32.20;17.70;;;;;;;-0.13;100.00;98775.34;12188328;19;20015;-80
2022/04/01 18:59:43;;;;;;;28.58;15.73;;;;;;;-0.12;100.00;98779.72;12219786;19;20018;-77
2022/04/01 19:03:46;;;;;;;37.47;18.90;;;;;;;-0.12;100.00;98776.16;12180838;19;20006;-78
2022/04/01 19:08:09;;;;;;;37.03;18.57;;;;;;;-0.05;100.00;98782.44;12209815;19;20388;-79
2022/04/01 19:12:12;;;;;;;51.65;26.55;;;;;;;-0.08;100.00;98788.28;12205189;19;20018;-79
2022/04/01 19:16:15;;;;;;;;;;;;;;;-0.14;100.00;98800.75;12194996;19;20063;-80
2022/04/01 19:20:19;;;;;;;21.77;10.38;;;;;;;-0.11;100.00;98802.22;12213075;19;19978;-78
2022/04/01 19:24:24;;;;;;;19.15;11.63;;;;;;;-0.17;100.00;98806.59;12213435;19;20018;-78